sensor_id;sensor_type;location;lat;lon;timestamp;P1;durP1;ratioP1;P2;durP2;ratioP2
68234;SDS011;55052;52.056;5.296;2022-11-20T00:00:30;57.65;;;29.35;;
68234;SDS011;55052;52.056;5.296;2022-11-20T00:02:57;29.10;;;18.08;;
68234;SDS011;55052;52.056;5.296;2022-11-20T00:05:23;24.13;;;15.68;;
68234;SDS011;55052;52.056;5.296;2022-11-20T00:07:50;21.95;;;12.02;;
68234;SDS011;55052;52.056;5.296;2022-11-20T00:10:17;20.48;;;11.30;;
68234;SDS011;55052;52.056;5.296;2022-11-20T00:12:44;18.10;;;10.77;;
68234;SDS011;55052;52.056;5.296;2022-11-20T00:15:10;15.55;;;9.65;;
68234;SDS011;55052;52.056;5.296;2022-11-20T00:17:37;17.90;;;10.25;;
68234;SDS011;55052;52.056;5.296;2022-11-20T00:20:04;16.17;;;9.80;;
68234;SDS011;55052;52.056;5.296;2022-11-20T00:22:31;17.23;;;10.35;;
68234;SDS011;55052;52.056;5.296;2022-11-20T00:24:58;18.73;;;10.30;;
68234;SDS011;55052;52.056;5.296;2022-11-20T00:27:25;17.30;;;10.10;;
68234;SDS011;55052;52.056;5.296;2022-11-20T00:29:51;17.00;;;10.40;;
68234;SDS011;55052;52.056;5.296;2022-11-20T00:32:18;19.02;;;10.32;;
68234;SDS011;55052;52.056;5.296;2022-11-20T00:34:45;17.80;;;10.60;;
68234;SDS011;55052;52.056;5.296;2022-11-20T00:37:11;19.45;;;10.57;;
68234;SDS011;55052;52.056;5.296;2022-11-20T00:39:38;19.08;;;10.68;;
68234;SDS011;55052;52.056;5.296;2022-11-20T00:42:05;19.30;;;11.20;;
68234;SDS011;55052;52.056;5.296;2022-11-20T00:44:31;46.30;;;20.30;;
68234;SDS011;55052;52.056;5.296;2022-11-20T00:46:58;53.47;;;23.48;;
68234;SDS011;55052;52.056;5.296;2022-11-20T00:49:25;28.67;;;14.10;;
68234;SDS011;55052;52.056;5.296;2022-11-20T00:51:51;35.15;;;15.88;;
68234;SDS011;55052;52.056;5.296;2022-11-20T00:54:18;38.97;;;18.27;;
68234;SDS011;55052;52.056;5.296;2022-11-20T00:56:45;31.60;;;16.00;;
68234;SDS011;55052;52.056;5.296;2022-11-20T00:59:12;35.95;;;17.58;;
68234;SDS011;55052;52.056;5.296;2022-11-20T01:01:38;29.58;;;15.10;;
68234;SDS011;55052;52.056;5.296;2022-11-20T01:04:05;23.35;;;11.82;;
68234;SDS011;55052;52.056;5.296;2022-11-20T01:06:33;19.65;;;10.82;;
68234;SDS011;55052;52.056;5.296;2022-11-20T01:09:04;19.45;;;10.88;;
68234;SDS011;55052;52.056;5.296;2022-11-20T01:11:38;18.35;;;10.38;;
68234;SDS011;55052;52.056;5.296;2022-11-20T01:14:09;17.25;;;10.25;;
68234;SDS011;55052;52.056;5.296;2022-11-20T01:16:41;16.75;;;9.73;;
68234;SDS011;55052;52.056;5.296;2022-11-20T01:19:16;18.63;;;10.82;;
68234;SDS011;55052;52.056;5.296;2022-11-20T01:21:49;16.63;;;9.70;;
68234;SDS011;55052;52.056;5.296;2022-11-20T01:24:17;16.60;;;10.88;;
68234;SDS011;55052;52.056;5.296;2022-11-20T01:26:46;16.48;;;10.45;;
68234;SDS011;55052;52.056;5.296;2022-11-20T01:29:15;19.05;;;10.63;;
68234;SDS011;55052;52.056;5.296;2022-11-20T01:31:45;16.85;;;10.18;;
68234;SDS011;55052;52.056;5.296;2022-11-20T01:34:13;16.30;;;9.50;;
68234;SDS011;55052;52.056;5.296;2022-11-20T01:36:41;17.80;;;9.88;;
68234;SDS011;55052;52.056;5.296;2022-11-20T01:39:13;18.70;;;10.10;;
68234;SDS011;55052;52.056;5.296;2022-11-20T01:41:43;19.23;;;11.38;;
68234;SDS011;55052;52.056;5.296;2022-11-20T01:44:43;17.65;;;10.98;;
68234;SDS011;55052;52.056;5.296;2022-11-20T01:47:21;15.77;;;9.90;;
68234;SDS011;55052;52.056;5.296;2022-11-20T01:49:52;15.45;;;10.02;;
68234;SDS011;55052;52.056;5.296;2022-11-20T01:52:29;18.08;;;10.63;;
68234;SDS011;55052;52.056;5.296;2022-11-20T01:55:02;17.65;;;10.80;;
68234;SDS011;55052;52.056;5.296;2022-11-20T01:57:35;17.75;;;10.65;;
68234;SDS011;55052;52.056;5.296;2022-11-20T02:00:04;16.90;;;10.07;;
68234;SDS011;55052;52.056;5.296;2022-11-20T02:02:34;16.73;;;10.35;;
68234;SDS011;55052;52.056;5.296;2022-11-20T02:05:04;18.67;;;10.73;;
68234;SDS011;55052;52.056;5.296;2022-11-20T02:07:48;20.45;;;11.05;;
68234;SDS011;55052;52.056;5.296;2022-11-20T02:10:16;17.05;;;9.70;;
68234;SDS011;55052;52.056;5.296;2022-11-20T02:12:44;15.93;;;9.88;;
68234;SDS011;55052;52.056;5.296;2022-11-20T02:15:29;17.30;;;10.32;;
68234;SDS011;55052;52.056;5.296;2022-11-20T02:17:56;15.27;;;9.63;;
68234;SDS011;55052;52.056;5.296;2022-11-20T02:20:23;18.95;;;10.63;;
68234;SDS011;55052;52.056;5.296;2022-11-20T02:23:00;17.02;;;9.98;;
68234;SDS011;55052;52.056;5.296;2022-11-20T02:25:34;16.70;;;9.52;;
68234;SDS011;55052;52.056;5.296;2022-11-20T02:28:02;18.67;;;9.80;;
68234;SDS011;55052;52.056;5.296;2022-11-20T02:30:31;17.75;;;10.02;;
68234;SDS011;55052;52.056;5.296;2022-11-20T02:32:57;17.33;;;10.15;;
68234;SDS011;55052;52.056;5.296;2022-11-20T02:37:54;17.52;;;9.43;;
68234;SDS011;55052;52.056;5.296;2022-11-20T02:40:22;18.33;;;10.13;;
68234;SDS011;55052;52.056;5.296;2022-11-20T02:42:53;16.00;;;9.65;;
68234;SDS011;55052;52.056;5.296;2022-11-20T02:45:20;18.27;;;9.90;;
68234;SDS011;55052;52.056;5.296;2022-11-20T02:47:48;18.75;;;9.77;;
68234;SDS011;55052;52.056;5.296;2022-11-20T02:50:16;17.30;;;10.02;;
68234;SDS011;55052;52.056;5.296;2022-11-20T02:52:44;14.10;;;8.95;;
68234;SDS011;55052;52.056;5.296;2022-11-20T02:55:10;14.82;;;9.30;;
68234;SDS011;55052;52.056;5.296;2022-11-20T02:57:37;18.88;;;9.70;;
68234;SDS011;55052;52.056;5.296;2022-11-20T03:00:04;18.00;;;10.00;;
68234;SDS011;55052;52.056;5.296;2022-11-20T03:02:32;16.45;;;10.18;;
68234;SDS011;55052;52.056;5.296;2022-11-20T03:04:59;15.90;;;9.63;;
68234;SDS011;55052;52.056;5.296;2022-11-20T03:07:26;19.40;;;9.88;;
68234;SDS011;55052;52.056;5.296;2022-11-20T03:09:53;16.73;;;9.88;;
68234;SDS011;55052;52.056;5.296;2022-11-20T03:12:20;17.40;;;9.82;;
68234;SDS011;55052;52.056;5.296;2022-11-20T03:14:47;18.27;;;10.52;;
68234;SDS011;55052;52.056;5.296;2022-11-20T03:17:18;17.23;;;10.30;;
68234;SDS011;55052;52.056;5.296;2022-11-20T03:19:45;15.70;;;10.00;;
68234;SDS011;55052;52.056;5.296;2022-11-20T03:22:11;17.15;;;9.77;;
68234;SDS011;55052;52.056;5.296;2022-11-20T03:24:38;17.25;;;10.13;;
68234;SDS011;55052;52.056;5.296;2022-11-20T03:27:05;15.73;;;9.55;;
68234;SDS011;55052;52.056;5.296;2022-11-20T03:29:31;16.77;;;10.00;;
68234;SDS011;55052;52.056;5.296;2022-11-20T03:31:58;14.50;;;8.80;;
68234;SDS011;55052;52.056;5.296;2022-11-20T03:34:25;16.17;;;9.70;;
68234;SDS011;55052;52.056;5.296;2022-11-20T03:36:52;17.40;;;10.23;;
68234;SDS011;55052;52.056;5.296;2022-11-20T03:39:18;15.20;;;9.13;;
68234;SDS011;55052;52.056;5.296;2022-11-20T03:41:45;15.63;;;9.75;;
68234;SDS011;55052;52.056;5.296;2022-11-20T03:44:12;15.88;;;9.23;;
68234;SDS011;55052;52.056;5.296;2022-11-20T03:46:39;18.40;;;9.93;;
68234;SDS011;55052;52.056;5.296;2022-11-20T03:49:06;18.88;;;9.98;;
68234;SDS011;55052;52.056;5.296;2022-11-20T03:51:33;16.55;;;9.60;;
68234;SDS011;55052;52.056;5.296;2022-11-20T03:54:02;19.75;;;10.43;;
68234;SDS011;55052;52.056;5.296;2022-11-20T03:56:32;18.05;;;10.15;;
68234;SDS011;55052;52.056;5.296;2022-11-20T03:59:00;16.55;;;10.32;;
68234;SDS011;55052;52.056;5.296;2022-11-20T04:01:28;16.23;;;9.77;;
68234;SDS011;55052;52.056;5.296;2022-11-20T04:03:59;19.10;;;10.00;;
68234;SDS011;55052;52.056;5.296;2022-11-20T04:06:32;18.00;;;9.88;;
68234;SDS011;55052;52.056;5.296;2022-11-20T04:09:00;17.05;;;10.43;;
68234;SDS011;55052;52.056;5.296;2022-11-20T04:11:28;19.08;;;9.80;;
68234;SDS011;55052;52.056;5.296;2022-11-20T04:14:01;16.90;;;9.87;;
68234;SDS011;55052;52.056;5.296;2022-11-20T04:16:31;17.00;;;9.60;;
68234;SDS011;55052;52.056;5.296;2022-11-20T04:19:00;15.20;;;9.53;;
68234;SDS011;55052;52.056;5.296;2022-11-20T04:21:29;16.35;;;9.32;;
68234;SDS011;55052;52.056;5.296;2022-11-20T04:23:56;14.95;;;9.50;;
68234;SDS011;55052;52.056;5.296;2022-11-20T04:26:24;17.17;;;10.00;;
68234;SDS011;55052;52.056;5.296;2022-11-20T04:28:53;16.70;;;9.57;;
68234;SDS011;55052;52.056;5.296;2022-11-20T04:31:22;15.43;;;9.40;;
68234;SDS011;55052;52.056;5.296;2022-11-20T04:33:50;16.40;;;9.65;;
68234;SDS011;55052;52.056;5.296;2022-11-20T04:36:18;18.50;;;10.00;;
68234;SDS011;55052;52.056;5.296;2022-11-20T04:38:49;16.45;;;9.70;;
68234;SDS011;55052;52.056;5.296;2022-11-20T04:41:23;18.30;;;9.55;;
68234;SDS011;55052;52.056;5.296;2022-11-20T04:43:55;16.63;;;9.65;;
68234;SDS011;55052;52.056;5.296;2022-11-20T04:46:26;15.40;;;8.98;;
68234;SDS011;55052;52.056;5.296;2022-11-20T04:48:53;17.35;;;9.57;;
68234;SDS011;55052;52.056;5.296;2022-11-20T04:51:20;17.63;;;10.00;;
68234;SDS011;55052;52.056;5.296;2022-11-20T04:53:48;17.00;;;9.50;;
68234;SDS011;55052;52.056;5.296;2022-11-20T04:56:15;17.08;;;9.80;;
68234;SDS011;55052;52.056;5.296;2022-11-20T04:58:42;14.88;;;8.98;;
68234;SDS011;55052;52.056;5.296;2022-11-20T05:01:10;15.82;;;9.50;;
68234;SDS011;55052;52.056;5.296;2022-11-20T05:03:50;16.85;;;9.27;;
68234;SDS011;55052;52.056;5.296;2022-11-20T05:06:18;17.40;;;9.98;;
68234;SDS011;55052;52.056;5.296;2022-11-20T05:08:48;16.92;;;9.43;;
68234;SDS011;55052;52.056;5.296;2022-11-20T05:11:19;15.98;;;9.60;;
68234;SDS011;55052;52.056;5.296;2022-11-20T05:13:46;16.25;;;9.27;;
68234;SDS011;55052;52.056;5.296;2022-11-20T05:16:21;15.02;;;9.15;;
68234;SDS011;55052;52.056;5.296;2022-11-20T05:18:49;15.45;;;8.60;;
68234;SDS011;55052;52.056;5.296;2022-11-20T05:21:17;16.15;;;9.30;;
68234;SDS011;55052;52.056;5.296;2022-11-20T05:23:44;15.60;;;9.38;;
68234;SDS011;55052;52.056;5.296;2022-11-20T05:26:13;16.58;;;9.68;;
68234;SDS011;55052;52.056;5.296;2022-11-20T05:28:42;15.50;;;9.20;;
68234;SDS011;55052;52.056;5.296;2022-11-20T05:31:11;15.50;;;9.52;;
68234;SDS011;55052;52.056;5.296;2022-11-20T05:33:48;14.38;;;8.93;;
68234;SDS011;55052;52.056;5.296;2022-11-20T05:36:15;15.63;;;9.23;;
68234;SDS011;55052;52.056;5.296;2022-11-20T05:38:42;18.10;;;9.68;;
68234;SDS011;55052;52.056;5.296;2022-11-20T05:41:16;17.75;;;9.48;;
68234;SDS011;55052;52.056;5.296;2022-11-20T05:43:45;20.65;;;9.30;;
68234;SDS011;55052;52.056;5.296;2022-11-20T05:46:13;16.38;;;9.45;;
68234;SDS011;55052;52.056;5.296;2022-11-20T05:48:41;15.10;;;9.65;;
68234;SDS011;55052;52.056;5.296;2022-11-20T05:51:10;15.73;;;9.00;;
68234;SDS011;55052;52.056;5.296;2022-11-20T05:53:38;16.67;;;9.35;;
68234;SDS011;55052;52.056;5.296;2022-11-20T05:56:14;19.13;;;9.10;;
68234;SDS011;55052;52.056;5.296;2022-11-20T05:58:44;17.15;;;9.52;;
68234;SDS011;55052;52.056;5.296;2022-11-20T06:01:13;17.58;;;8.85;;
68234;SDS011;55052;52.056;5.296;2022-11-20T06:03:47;16.55;;;9.02;;
68234;SDS011;55052;52.056;5.296;2022-11-20T06:06:17;19.13;;;10.27;;
68234;SDS011;55052;52.056;5.296;2022-11-20T06:08:44;15.07;;;8.68;;
68234;SDS011;55052;52.056;5.296;2022-11-20T06:11:12;15.23;;;9.57;;
68234;SDS011;55052;52.056;5.296;2022-11-20T06:13:40;16.42;;;9.38;;
68234;SDS011;55052;52.056;5.296;2022-11-20T06:16:08;15.27;;;8.63;;
68234;SDS011;55052;52.056;5.296;2022-11-20T06:18:35;17.10;;;9.93;;
68234;SDS011;55052;52.056;5.296;2022-11-20T06:21:04;18.58;;;9.70;;
68234;SDS011;55052;52.056;5.296;2022-11-20T06:23:33;15.60;;;8.93;;
68234;SDS011;55052;52.056;5.296;2022-11-20T06:26:01;17.17;;;8.98;;
68234;SDS011;55052;52.056;5.296;2022-11-20T06:28:29;15.73;;;9.35;;
68234;SDS011;55052;52.056;5.296;2022-11-20T06:30:56;16.42;;;9.23;;
68234;SDS011;55052;52.056;5.296;2022-11-20T06:33:23;15.40;;;9.43;;
68234;SDS011;55052;52.056;5.296;2022-11-20T06:35:50;22.80;;;10.27;;
68234;SDS011;55052;52.056;5.296;2022-11-20T06:38:25;15.57;;;9.02;;
68234;SDS011;55052;52.056;5.296;2022-11-20T06:40:52;16.48;;;9.75;;
68234;SDS011;55052;52.056;5.296;2022-11-20T06:43:20;16.27;;;9.23;;
68234;SDS011;55052;52.056;5.296;2022-11-20T06:45:51;17.73;;;10.18;;
68234;SDS011;55052;52.056;5.296;2022-11-20T06:48:22;16.27;;;8.82;;
68234;SDS011;55052;52.056;5.296;2022-11-20T06:50:50;18.65;;;9.77;;
68234;SDS011;55052;52.056;5.296;2022-11-20T06:53:16;16.88;;;9.95;;
68234;SDS011;55052;52.056;5.296;2022-11-20T06:55:45;16.17;;;9.52;;
68234;SDS011;55052;52.056;5.296;2022-11-20T06:58:14;18.45;;;10.18;;
68234;SDS011;55052;52.056;5.296;2022-11-20T07:00:41;16.75;;;10.27;;
68234;SDS011;55052;52.056;5.296;2022-11-20T07:03:09;15.93;;;9.85;;
68234;SDS011;55052;52.056;5.296;2022-11-20T07:05:37;18.50;;;9.82;;
68234;SDS011;55052;52.056;5.296;2022-11-20T07:08:04;18.30;;;10.30;;
68234;SDS011;55052;52.056;5.296;2022-11-20T07:10:31;16.05;;;9.73;;
68234;SDS011;55052;52.056;5.296;2022-11-20T07:12:58;16.58;;;9.77;;
68234;SDS011;55052;52.056;5.296;2022-11-20T07:15:25;17.55;;;10.32;;
68234;SDS011;55052;52.056;5.296;2022-11-20T07:17:52;19.35;;;10.13;;
68234;SDS011;55052;52.056;5.296;2022-11-20T07:20:19;17.33;;;9.60;;
68234;SDS011;55052;52.056;5.296;2022-11-20T07:22:46;17.38;;;9.40;;
68234;SDS011;55052;52.056;5.296;2022-11-20T07:25:12;19.08;;;10.10;;
68234;SDS011;55052;52.056;5.296;2022-11-20T07:27:39;17.63;;;10.38;;
68234;SDS011;55052;52.056;5.296;2022-11-20T07:30:06;16.42;;;9.85;;
68234;SDS011;55052;52.056;5.296;2022-11-20T07:32:33;16.58;;;9.82;;
68234;SDS011;55052;52.056;5.296;2022-11-20T07:35:00;17.75;;;9.68;;
68234;SDS011;55052;52.056;5.296;2022-11-20T07:37:26;18.33;;;10.30;;
68234;SDS011;55052;52.056;5.296;2022-11-20T07:39:53;18.17;;;10.68;;
68234;SDS011;55052;52.056;5.296;2022-11-20T07:42:20;20.30;;;11.70;;
68234;SDS011;55052;52.056;5.296;2022-11-20T07:44:47;17.85;;;10.82;;
68234;SDS011;55052;52.056;5.296;2022-11-20T07:47:13;19.85;;;12.07;;
68234;SDS011;55052;52.056;5.296;2022-11-20T07:49:40;19.33;;;12.38;;
68234;SDS011;55052;52.056;5.296;2022-11-20T07:52:07;22.15;;;11.45;;
68234;SDS011;55052;52.056;5.296;2022-11-20T07:54:33;19.85;;;12.15;;
68234;SDS011;55052;52.056;5.296;2022-11-20T07:57:00;20.80;;;11.73;;
68234;SDS011;55052;52.056;5.296;2022-11-20T07:59:27;16.83;;;10.27;;
68234;SDS011;55052;52.056;5.296;2022-11-20T08:01:54;20.77;;;12.52;;
68234;SDS011;55052;52.056;5.296;2022-11-20T08:04:21;23.48;;;13.27;;
68234;SDS011;55052;52.056;5.296;2022-11-20T08:06:49;21.52;;;12.27;;
68234;SDS011;55052;52.056;5.296;2022-11-20T08:09:17;19.85;;;12.30;;
68234;SDS011;55052;52.056;5.296;2022-11-20T08:11:45;21.70;;;12.55;;
68234;SDS011;55052;52.056;5.296;2022-11-20T08:14:30;25.55;;;14.55;;
68234;SDS011;55052;52.056;5.296;2022-11-20T08:16:57;27.73;;;15.93;;
68234;SDS011;55052;52.056;5.296;2022-11-20T08:19:23;25.88;;;13.82;;
68234;SDS011;55052;52.056;5.296;2022-11-20T08:21:50;26.85;;;14.75;;
68234;SDS011;55052;52.056;5.296;2022-11-20T08:24:17;24.02;;;14.25;;
68234;SDS011;55052;52.056;5.296;2022-11-20T08:26:44;23.73;;;14.18;;
68234;SDS011;55052;52.056;5.296;2022-11-20T08:29:10;24.30;;;13.73;;
68234;SDS011;55052;52.056;5.296;2022-11-20T08:31:37;24.02;;;13.65;;
68234;SDS011;55052;52.056;5.296;2022-11-20T08:34:04;24.02;;;13.57;;
68234;SDS011;55052;52.056;5.296;2022-11-20T08:39:01;24.23;;;13.13;;
68234;SDS011;55052;52.056;5.296;2022-11-20T08:41:29;24.33;;;13.30;;
68234;SDS011;55052;52.056;5.296;2022-11-20T08:44:00;26.40;;;13.82;;
68234;SDS011;55052;52.056;5.296;2022-11-20T08:46:31;23.23;;;13.82;;
68234;SDS011;55052;52.056;5.296;2022-11-20T08:49:00;24.63;;;14.18;;
68234;SDS011;55052;52.056;5.296;2022-11-20T08:51:26;23.88;;;13.60;;
68234;SDS011;55052;52.056;5.296;2022-11-20T08:53:53;24.73;;;15.63;;
68234;SDS011;55052;52.056;5.296;2022-11-20T08:56:20;24.52;;;15.25;;
68234;SDS011;55052;52.056;5.296;2022-11-20T08:58:47;26.30;;;15.10;;
68234;SDS011;55052;52.056;5.296;2022-11-20T09:01:33;24.80;;;14.20;;
68234;SDS011;55052;52.056;5.296;2022-11-20T09:04:01;21.65;;;13.45;;
68234;SDS011;55052;52.056;5.296;2022-11-20T09:06:29;24.15;;;15.15;;
68234;SDS011;55052;52.056;5.296;2022-11-20T09:08:56;25.15;;;14.82;;
68234;SDS011;55052;52.056;5.296;2022-11-20T09:11:30;28.50;;;15.82;;
68234;SDS011;55052;52.056;5.296;2022-11-20T09:13:56;23.35;;;14.70;;
68234;SDS011;55052;52.056;5.296;2022-11-20T09:16:23;24.60;;;15.63;;
68234;SDS011;55052;52.056;5.296;2022-11-20T09:18:50;24.20;;;14.65;;
68234;SDS011;55052;52.056;5.296;2022-11-20T09:21:37;25.35;;;14.98;;
68234;SDS011;55052;52.056;5.296;2022-11-20T09:24:04;24.58;;;14.98;;
68234;SDS011;55052;52.056;5.296;2022-11-20T09:26:31;24.98;;;14.50;;
68234;SDS011;55052;52.056;5.296;2022-11-20T09:28:58;25.48;;;15.05;;
68234;SDS011;55052;52.056;5.296;2022-11-20T09:31:25;23.83;;;14.60;;
68234;SDS011;55052;52.056;5.296;2022-11-20T09:33:54;31.33;;;15.98;;
68234;SDS011;55052;52.056;5.296;2022-11-20T09:36:21;23.95;;;14.70;;
68234;SDS011;55052;52.056;5.296;2022-11-20T09:38:48;24.60;;;14.32;;
68234;SDS011;55052;52.056;5.296;2022-11-20T09:44:07;25.58;;;14.43;;
68234;SDS011;55052;52.056;5.296;2022-11-20T09:46:55;22.77;;;14.48;;
68234;SDS011;55052;52.056;5.296;2022-11-20T09:52:40;29.85;;;15.93;;
68234;SDS011;55052;52.056;5.296;2022-11-20T09:55:12;23.80;;;15.32;;
68234;SDS011;55052;52.056;5.296;2022-11-20T09:57:41;23.33;;;14.45;;
68234;SDS011;55052;52.056;5.296;2022-11-20T10:00:12;27.23;;;15.50;;
68234;SDS011;55052;52.056;5.296;2022-11-20T10:05:18;27.30;;;15.60;;
68234;SDS011;55052;52.056;5.296;2022-11-20T10:13:13;28.02;;;15.63;;
68234;SDS011;55052;52.056;5.296;2022-11-20T10:16:16;28.85;;;16.08;;
68234;SDS011;55052;52.056;5.296;2022-11-20T10:18:54;24.60;;;15.25;;
68234;SDS011;55052;52.056;5.296;2022-11-20T10:29:34;26.23;;;15.38;;
68234;SDS011;55052;52.056;5.296;2022-11-20T10:32:04;24.02;;;15.18;;
68234;SDS011;55052;52.056;5.296;2022-11-20T10:34:44;31.95;;;15.77;;
68234;SDS011;55052;52.056;5.296;2022-11-20T10:37:18;26.40;;;15.02;;
68234;SDS011;55052;52.056;5.296;2022-11-20T10:42:42;30.65;;;16.70;;
68234;SDS011;55052;52.056;5.296;2022-11-20T10:48:07;25.95;;;15.52;;
68234;SDS011;55052;52.056;5.296;2022-11-20T10:50:44;28.98;;;16.75;;
68234;SDS011;55052;52.056;5.296;2022-11-20T10:53:30;28.38;;;16.67;;
68234;SDS011;55052;52.056;5.296;2022-11-20T10:56:25;29.50;;;16.88;;
68234;SDS011;55052;52.056;5.296;2022-11-20T11:01:45;30.13;;;16.80;;
68234;SDS011;55052;52.056;5.296;2022-11-20T11:09:46;30.02;;;17.63;;
68234;SDS011;55052;52.056;5.296;2022-11-20T11:12:15;30.50;;;16.98;;
68234;SDS011;55052;52.056;5.296;2022-11-20T11:14:43;31.45;;;16.70;;
68234;SDS011;55052;52.056;5.296;2022-11-20T11:17:22;30.58;;;17.55;;
68234;SDS011;55052;52.056;5.296;2022-11-20T11:22:47;29.85;;;16.85;;
68234;SDS011;55052;52.056;5.296;2022-11-20T11:28:23;29.52;;;17.15;;
68234;SDS011;55052;52.056;5.296;2022-11-20T11:30:52;28.55;;;16.88;;
68234;SDS011;55052;52.056;5.296;2022-11-20T11:33:29;30.73;;;18.20;;
68234;SDS011;55052;52.056;5.296;2022-11-20T11:36:01;31.05;;;17.48;;
68234;SDS011;55052;52.056;5.296;2022-11-20T11:38:32;34.08;;;18.63;;
68234;SDS011;55052;52.056;5.296;2022-11-20T11:41:02;31.35;;;18.48;;
68234;SDS011;55052;52.056;5.296;2022-11-20T11:43:34;30.63;;;18.05;;
68234;SDS011;55052;52.056;5.296;2022-11-20T11:48:59;34.72;;;19.15;;
68234;SDS011;55052;52.056;5.296;2022-11-20T11:51:33;33.25;;;18.85;;
68234;SDS011;55052;52.056;5.296;2022-11-20T11:54:17;35.72;;;19.50;;
68234;SDS011;55052;52.056;5.296;2022-11-20T11:56:58;33.10;;;18.08;;
68234;SDS011;55052;52.056;5.296;2022-11-20T12:16:01;31.75;;;18.58;;
68234;SDS011;55052;52.056;5.296;2022-11-20T12:18:29;37.25;;;20.73;;
68234;SDS011;55052;52.056;5.296;2022-11-20T12:21:00;35.72;;;19.30;;
68234;SDS011;55052;52.056;5.296;2022-11-20T12:23:41;35.90;;;19.38;;
68234;SDS011;55052;52.056;5.296;2022-11-20T12:28:54;33.75;;;19.48;;
68234;SDS011;55052;52.056;5.296;2022-11-20T12:34:12;37.08;;;19.23;;
68234;SDS011;55052;52.056;5.296;2022-11-20T12:36:50;38.97;;;20.02;;
68234;SDS011;55052;52.056;5.296;2022-11-20T12:50:46;43.38;;;20.48;;
68234;SDS011;55052;52.056;5.296;2022-11-20T12:56:37;32.55;;;17.92;;
68234;SDS011;55052;52.056;5.296;2022-11-20T13:07:47;37.67;;;20.25;;
68234;SDS011;55052;52.056;5.296;2022-11-20T13:10:19;45.83;;;21.55;;
68234;SDS011;55052;52.056;5.296;2022-11-20T13:13:11;40.88;;;20.77;;
68234;SDS011;55052;52.056;5.296;2022-11-20T13:18:16;42.40;;;20.45;;
68234;SDS011;55052;52.056;5.296;2022-11-20T13:20:44;41.55;;;20.02;;
68234;SDS011;55052;52.056;5.296;2022-11-20T13:23:22;40.13;;;20.20;;
68234;SDS011;55052;52.056;5.296;2022-11-20T13:25:51;37.55;;;19.38;;
68234;SDS011;55052;52.056;5.296;2022-11-20T13:28:29;34.67;;;19.05;;
68234;SDS011;55052;52.056;5.296;2022-11-20T13:30:56;39.55;;;20.08;;
68234;SDS011;55052;52.056;5.296;2022-11-20T13:33:31;41.97;;;20.73;;
68234;SDS011;55052;52.056;5.296;2022-11-20T13:38:43;38.05;;;19.90;;
68234;SDS011;55052;52.056;5.296;2022-11-20T13:41:24;38.30;;;20.27;;
68234;SDS011;55052;52.056;5.296;2022-11-20T13:46:52;40.72;;;20.33;;
68234;SDS011;55052;52.056;5.296;2022-11-20T13:57:27;42.92;;;22.08;;
68234;SDS011;55052;52.056;5.296;2022-11-20T14:00:23;43.28;;;21.17;;
68234;SDS011;55052;52.056;5.296;2022-11-20T14:03:04;43.78;;;22.48;;
68234;SDS011;55052;52.056;5.296;2022-11-20T14:05:51;38.50;;;21.35;;
68234;SDS011;55052;52.056;5.296;2022-11-20T14:08:44;41.97;;;21.15;;
68234;SDS011;55052;52.056;5.296;2022-11-20T14:13:59;40.92;;;20.02;;
68234;SDS011;55052;52.056;5.296;2022-11-20T14:16:27;42.47;;;19.83;;
68234;SDS011;55052;52.056;5.296;2022-11-20T14:18:57;38.58;;;20.02;;
68234;SDS011;55052;52.056;5.296;2022-11-20T14:21:43;43.15;;;21.73;;
68234;SDS011;55052;52.056;5.296;2022-11-20T14:24:10;41.53;;;21.67;;
68234;SDS011;55052;52.056;5.296;2022-11-20T14:26:41;39.30;;;20.23;;
68234;SDS011;55052;52.056;5.296;2022-11-20T14:29:16;42.95;;;20.42;;
68234;SDS011;55052;52.056;5.296;2022-11-20T14:31:45;39.63;;;19.98;;
68234;SDS011;55052;52.056;5.296;2022-11-20T14:34:25;40.60;;;20.92;;
68234;SDS011;55052;52.056;5.296;2022-11-20T14:36:59;41.95;;;21.27;;
68234;SDS011;55052;52.056;5.296;2022-11-20T14:39:30;46.20;;;22.47;;
68234;SDS011;55052;52.056;5.296;2022-11-20T14:42:01;46.40;;;21.33;;
68234;SDS011;55052;52.056;5.296;2022-11-20T14:44:31;42.20;;;20.73;;
68234;SDS011;55052;52.056;5.296;2022-11-20T14:49:29;44.88;;;23.13;;
68234;SDS011;55052;52.056;5.296;2022-11-20T14:51:58;43.85;;;21.30;;
68234;SDS011;55052;52.056;5.296;2022-11-20T14:54:26;47.83;;;22.45;;
68234;SDS011;55052;52.056;5.296;2022-11-20T14:56:54;40.35;;;19.75;;
68234;SDS011;55052;52.056;5.296;2022-11-20T14:59:23;43.25;;;22.00;;
68234;SDS011;55052;52.056;5.296;2022-11-20T15:01:55;42.67;;;20.85;;
68234;SDS011;55052;52.056;5.296;2022-11-20T15:04:28;43.63;;;21.50;;
68234;SDS011;55052;52.056;5.296;2022-11-20T15:06:57;43.72;;;21.67;;
68234;SDS011;55052;52.056;5.296;2022-11-20T15:09:26;40.25;;;21.23;;
68234;SDS011;55052;52.056;5.296;2022-11-20T15:11:59;36.85;;;20.50;;
68234;SDS011;55052;52.056;5.296;2022-11-20T15:14:28;34.38;;;19.48;;
68234;SDS011;55052;52.056;5.296;2022-11-20T15:16:57;38.00;;;20.65;;
68234;SDS011;55052;52.056;5.296;2022-11-20T15:19:25;34.25;;;18.27;;
68234;SDS011;55052;52.056;5.296;2022-11-20T15:21:52;39.03;;;19.92;;
68234;SDS011;55052;52.056;5.296;2022-11-20T15:24:19;38.25;;;19.35;;
68234;SDS011;55052;52.056;5.296;2022-11-20T15:26:48;34.25;;;19.50;;
68234;SDS011;55052;52.056;5.296;2022-11-20T15:29:15;35.92;;;20.10;;
68234;SDS011;55052;52.056;5.296;2022-11-20T15:31:46;36.55;;;20.27;;
68234;SDS011;55052;52.056;5.296;2022-11-20T15:34:14;38.03;;;20.55;;
68234;SDS011;55052;52.056;5.296;2022-11-20T15:36:41;37.88;;;21.10;;
68234;SDS011;55052;52.056;5.296;2022-11-20T15:39:09;34.08;;;18.73;;
68234;SDS011;55052;52.056;5.296;2022-11-20T15:41:37;35.13;;;19.58;;
68234;SDS011;55052;52.056;5.296;2022-11-20T15:44:05;34.35;;;22.35;;
68234;SDS011;55052;52.056;5.296;2022-11-20T15:46:33;36.58;;;20.17;;
68234;SDS011;55052;52.056;5.296;2022-11-20T15:49:06;34.70;;;19.35;;
68234;SDS011;55052;52.056;5.296;2022-11-20T15:51:39;32.28;;;19.50;;
68234;SDS011;55052;52.056;5.296;2022-11-20T15:54:19;35.15;;;20.75;;
68234;SDS011;55052;52.056;5.296;2022-11-20T15:56:48;33.80;;;19.23;;
68234;SDS011;55052;52.056;5.296;2022-11-20T15:59:18;32.08;;;16.90;;
68234;SDS011;55052;52.056;5.296;2022-11-20T16:01:45;32.47;;;18.23;;
68234;SDS011;55052;52.056;5.296;2022-11-20T16:04:13;31.90;;;19.77;;
68234;SDS011;55052;52.056;5.296;2022-11-20T16:06:41;48.00;;;25.67;;
68234;SDS011;55052;52.056;5.296;2022-11-20T16:09:08;38.83;;;21.83;;
68234;SDS011;55052;52.056;5.296;2022-11-20T16:11:35;32.60;;;18.40;;
68234;SDS011;55052;52.056;5.296;2022-11-20T16:14:03;32.40;;;18.65;;
68234;SDS011;55052;52.056;5.296;2022-11-20T16:16:48;29.85;;;17.63;;
68234;SDS011;55052;52.056;5.296;2022-11-20T16:19:15;33.47;;;18.17;;
68234;SDS011;55052;52.056;5.296;2022-11-20T16:21:44;28.17;;;16.77;;
68234;SDS011;55052;52.056;5.296;2022-11-20T16:24:11;28.65;;;17.70;;
68234;SDS011;55052;52.056;5.296;2022-11-20T16:26:40;27.67;;;17.13;;
68234;SDS011;55052;52.056;5.296;2022-11-20T16:29:07;34.67;;;19.42;;
68234;SDS011;55052;52.056;5.296;2022-11-20T16:31:34;29.55;;;17.08;;
68234;SDS011;55052;52.056;5.296;2022-11-20T16:34:02;31.73;;;18.70;;
68234;SDS011;55052;52.056;5.296;2022-11-20T16:36:40;29.08;;;18.08;;
68234;SDS011;55052;52.056;5.296;2022-11-20T16:39:08;28.52;;;16.60;;